Time;durP1;ratioP1;P1;durP2;ratioP2;P2;SDS_P1;SDS_P2;PMS_P1;PMS_P2;Temp;Humidity;BMP_temperature;BMP_pressure;BME280_temperature;BME280_humidity;BME280_pressure;Samples;Min_cycle;Max_cycle;Signal;HPM_P1;HPM_P2
2023/08/03 00:00:57;;;;;;;5.28;1.95;;;;;;;-145.00;82.20;72526.69;5009717;28;20046;-75
2023/08/03 00:03:24;;;;;;;5.63;2.10;;;;;;;-145.00;82.31;72537.09;5009905;28;20049;-74
2023/08/03 00:05:53;;;;;;;7.05;2.00;;;;;;;-145.00;82.67;72541.25;5010699;28;20060;-75
2023/08/03 00:08:20;;;;;;;3.50;1.75;;;;;;;-145.00;82.90;72512.09;4998206;28;20053;-75
2023/08/03 00:10:46;;;;;;;3.65;2.20;;;;;;;-145.00;82.46;72497.53;5046189;28;20061;-74
2023/08/03 00:13:13;;;;;;;10.25;2.10;;;;;;;-145.00;81.89;72489.22;5030000;28;20073;-75
2023/08/03 00:15:39;;;;;;;5.38;2.28;;;;;;;-145.00;82.57;72503.78;5030120;28;20519;-76
2023/08/03 00:18:07;;;;;;;11.40;2.40;;;;;;;-145.00;82.93;72522.53;5030464;28;20060;-75
2023/08/03 00:20:34;;;;;;;5.25;2.10;;;;;;;-145.00;83.38;72532.94;5030249;28;20401;-75
2023/08/03 00:23:01;;;;;;;5.22;2.50;;;;;;;-145.00;83.58;72535.00;5029976;28;20045;-74
2023/08/03 00:25:30;;;;;;;5.70;2.20;;;;;;;-145.00;83.36;72522.53;5026048;28;20478;-74
2023/08/03 00:27:57;;;;;;;8.32;2.63;;;;;;;-145.00;83.41;72526.69;5010523;28;20421;-74
2023/08/03 00:30:23;;;;;;;6.38;2.30;;;;;;;-145.00;83.97;72524.59;5010334;28;20049;-75
2023/08/03 00:32:50;;;;;;;6.28;1.95;;;;;;;-145.00;84.79;72539.16;5010894;28;20046;-75
2023/08/03 00:35:19;;;;;;;6.72;2.17;;;;;;;-145.00;84.40;72539.16;5010220;28;20133;-74
2023/08/03 00:37:46;;;;;;;7.30;2.17;;;;;;;-145.00;84.56;72535.00;5011927;28;20064;-74
2023/08/03 00:40:12;;;;;;;6.78;2.00;;;;;;;-145.00;85.34;72537.09;5038078;28;20390;-75
2023/08/03 00:42:39;;;;;;;7.90;2.35;;;;;;;-145.00;85.36;72537.09;5058286;28;20544;-75
2023/08/03 00:45:07;;;;;;;5.95;2.50;;;;;;;-145.00;85.28;72539.16;5040593;28;20041;-75
2023/08/03 00:47:34;;;;;;;4.45;2.10;;;;;;;-145.00;84.80;72543.34;5038291;28;20068;-76
2023/08/03 00:50:01;;;;;;;8.82;2.60;;;;;;;-145.00;84.81;72535.00;5039488;28;20413;-75
2023/08/03 00:52:33;;;;;;;5.57;2.17;;;;;;;-145.00;84.86;72547.50;5038280;28;20080;-75
2023/08/03 00:55:00;;;;;;;7.37;2.43;;;;;;;-145.00;84.73;72545.41;5020856;28;20052;-75
2023/08/03 00:57:27;;;;;;;6.68;2.45;;;;;;;-145.00;84.63;72530.84;5036225;28;20041;-75
2023/08/03 00:59:54;;;;;;;8.02;2.50;;;;;;;-145.00;84.48;72522.53;5038020;28;20068;-75
2023/08/03 01:02:20;;;;;;;8.85;2.30;;;;;;;-145.00;84.85;72514.19;5034810;28;20049;-75
2023/08/03 01:04:47;;;;;;;6.10;2.30;;;;;;;-145.00;84.81;72501.69;5031587;28;20042;-75
2023/08/03 01:07:14;;;;;;;5.32;2.30;;;;;;;-145.00;83.58;72497.53;5042482;28;20496;-75
2023/08/03 01:09:43;;;;;;;10.07;2.63;;;;;;;-145.00;83.64;72522.53;5040286;28;20049;-74
2023/08/03 01:12:10;;;;;;;7.72;2.63;;;;;;;-145.00;83.41;72510.03;5033453;28;20111;-75
2023/08/03 01:14:36;;;;;;;6.50;2.60;;;;;;;-145.00;83.40;72493.38;5032966;28;20132;-75
2023/08/03 01:17:05;;;;;;;5.25;2.05;;;;;;;-145.00;82.45;72464.22;5028473;28;20042;-74
2023/08/03 01:19:32;;;;;;;6.85;2.45;;;;;;;-145.00;82.17;72487.13;5031649;28;20045;-74
2023/08/03 01:22:00;;;;;;;5.80;2.35;;;;;;;-145.00;83.24;72501.69;5032657;28;20530;-74
2023/08/03 01:24:29;;;;;;;3.10;1.92;;;;;;;-145.00;82.86;72487.13;5032305;28;20046;-75
2023/08/03 01:27:02;;;;;;;7.88;2.88;;;;;;;-145.00;82.14;72474.63;5032147;28;20552;-75
2023/08/03 01:29:29;;;;;;;5.35;1.88;;;;;;;-145.00;82.27;72476.72;5032504;28;20124;-75
2023/08/03 01:31:58;;;;;;;6.50;2.28;;;;;;;-145.00;82.34;72485.06;5032683;28;20051;-75
2023/08/03 01:34:24;;;;;;;7.20;2.30;;;;;;;-145.00;81.65;72443.41;5031314;28;20062;-75
2023/08/03 01:36:52;;;;;;;8.27;2.53;;;;;;;-145.00;81.38;72443.41;5032394;28;20041;-75
2023/08/03 01:39:20;;;;;;;6.70;2.40;;;;;;;-145.00;81.15;72428.84;5038110;28;20041;-75
2023/08/03 01:41:48;;;;;;;7.82;2.72;;;;;;;-145.00;81.63;72455.91;5052432;28;20044;-75
2023/08/03 01:44:26;;;;;;;6.43;2.30;;;;;;;-145.00;81.18;72433.00;5044393;28;20042;-75
2023/08/03 01:46:54;;;;;;;5.43;1.95;;;;;;;-145.00;81.17;72426.75;5012502;28;20061;-74
2023/08/03 01:49:22;;;;;;;7.68;2.60;;;;;;;-145.00;80.96;72426.75;5011872;28;20050;-74
2023/08/03 01:51:48;;;;;;;7.22;2.28;;;;;;;-145.00;80.04;72418.44;5043183;28;20048;-75
2023/08/03 01:54:16;;;;;;;8.38;3.22;;;;;;;-145.00;80.06;72418.44;5012146;28;20049;-75
2023/08/03 01:56:42;;;;;;;6.53;2.22;;;;;;;-145.00;80.29;72422.59;5012213;28;20421;-75
2023/08/03 01:59:11;;;;;;;6.82;2.25;;;;;;;-145.00;79.61;72418.44;5012237;28;20042;-75
2023/08/03 02:01:37;;;;;;;7.45;2.15;;;;;;;-145.00;79.01;72422.59;5014972;28;20496;-75
2023/08/03 02:04:04;;;;;;;6.65;2.28;;;;;;;-145.00;79.41;72435.09;5032342;28;20037;-75
2023/08/03 02:06:31;;;;;;;8.23;2.75;;;;;;;-145.00;79.22;72422.59;5031485;28;20409;-75
2023/08/03 02:08:58;;;;;;;9.02;2.25;;;;;;;-145.00;79.51;72435.09;5034828;28;20512;-76
2023/08/03 02:11:24;;;;;;;9.45;2.20;;;;;;;-145.00;79.38;72408.03;5050563;28;20048;-76
2023/08/03 02:13:51;;;;;;;5.78;2.50;;;;;;;-145.00;79.36;72393.47;5051491;28;20041;-74
2023/08/03 02:16:19;;;;;;;8.23;2.10;;;;;;;-145.00;79.33;72389.28;5042403;28;20137;-75
2023/08/03 02:18:46;;;;;;;7.93;2.30;;;;;;;-145.00;78.61;72387.22;5032894;28;20060;-75
2023/08/03 02:21:18;;;;;;;6.40;2.35;;;;;;;-145.00;78.31;72385.13;5032196;28;20049;-75
2023/08/03 02:23:44;;;;;;;8.15;2.45;;;;;;;-145.00;78.21;72385.13;5031458;28;20061;-74
2023/08/03 02:26:11;;;;;;;6.38;2.55;;;;;;;-145.00;78.07;72376.81;5017739;28;20409;-74
2023/08/03 02:28:37;;;;;;;10.88;2.40;;;;;;;-145.00;77.30;72376.81;5011202;28;20060;-75
2023/08/03 02:31:04;;;;;;;9.25;2.22;;;;;;;-145.00;77.06;72368.47;5011021;28;20052;-74
2023/08/03 02:33:32;;;;;;;5.68;2.42;;;;;;;-145.00;77.34;72368.47;5011424;28;20041;-75
2023/08/03 02:35:58;;;;;;;10.25;2.17;;;;;;;-145.00;77.25;72372.66;5011451;28;20088;-74
2023/08/03 02:38:25;;;;;;;8.65;1.95;;;;;;;-145.00;75.86;72372.66;5024802;28;20498;-75
2023/08/03 02:40:52;;;;;;;5.88;2.08;;;;;;;-145.00;75.91;72372.66;5050531;28;20447;-74
2023/08/03 02:43:18;;;;;;;6.53;2.40;;;;;;;-145.00;75.86;72380.97;5050267;28;20124;-75
2023/08/03 02:45:45;;;;;;;5.63;2.13;;;;;;;-145.00;76.32;72374.72;5043968;28;20049;-74
2023/08/03 02:48:11;;;;;;;6.80;2.00;;;;;;;-145.00;75.94;72364.31;5030595;28;20049;-74
2023/08/03 02:50:39;;;;;;;8.43;2.22;;;;;;;-145.00;76.37;72385.13;5030929;28;20057;-74
2023/08/03 02:53:06;;;;;;;8.30;2.78;;;;;;;-145.00;76.12;72403.88;5030522;28;20494;-75
2023/08/03 02:55:32;;;;;;;8.25;2.28;;;;;;;-145.00;75.63;72393.47;5026708;28;20046;-74
2023/08/03 02:57:59;;;;;;;6.25;2.40;;;;;;;-145.00;75.49;72420.53;5011307;28;20045;-75
2023/08/03 03:00:25;;;;;;;6.15;2.03;;;;;;;-145.00;75.60;72458.00;5010689;28;20517;-75
2023/08/03 03:02:52;;;;;;;6.65;2.13;;;;;;;-145.00;75.24;72464.22;5010824;28;20042;-75
2023/08/03 03:05:18;;;;;;;6.47;2.08;;;;;;;-145.00;75.29;72443.41;5012526;28;20068;-75
2023/08/03 03:07:46;;;;;;;9.07;2.20;;;;;;;-145.00;75.23;72422.59;5030353;28;20052;-75
2023/08/03 03:10:13;;;;;;;7.00;2.38;;;;;;;-145.00;74.79;72410.13;5049680;28;20488;-74
2023/08/03 03:12:39;;;;;;;8.20;2.28;;;;;;;-145.00;73.84;72405.94;5050306;28;20056;-74
2023/08/03 03:15:07;;;;;;;11.63;2.88;;;;;;;-145.00;74.17;72414.28;5044343;28;20041;-75
2023/08/03 03:17:34;;;;;;;7.55;2.05;;;;;;;-145.00;74.38;72401.78;5039339;28;20048;-74
2023/08/03 03:20:00;;;;;;;10.43;2.33;;;;;;;-145.00;73.64;72410.13;5038541;28;20041;-75
2023/08/03 03:22:27;;;;;;;5.72;2.00;;;;;;;-145.00;72.99;72401.78;5010142;28;20041;-75
2023/08/03 03:24:54;;;;;;;7.57;2.20;;;;;;;-145.00;73.22;72414.28;4992845;28;20046;-74
2023/08/03 03:27:21;;;;;;;6.43;2.25;;;;;;;-145.00;73.10;72414.28;5027735;28;20049;-75
2023/08/03 03:29:47;;;;;;;8.77;2.25;;;;;;;-145.00;71.67;72451.75;5029706;28;20049;-75
2023/08/03 03:32:14;;;;;;;5.65;2.20;;;;;;;-145.00;71.99;72476.72;5023910;28;20041;-75
2023/08/03 03:34:41;;;;;;;11.88;2.95;;;;;;;-145.00;71.78;72447.59;5011077;28;20042;-74
2023/08/03 03:37:07;;;;;;;7.63;1.75;;;;;;;-145.00;71.33;72439.25;5009471;28;20050;-74
2023/08/03 03:39:34;;;;;;;8.25;2.30;;;;;;;-145.00;71.37;72426.75;5023504;28;20048;-75
2023/08/03 03:42:02;;;;;;;7.60;1.98;;;;;;;-145.00;71.30;72418.44;5041124;28;20522;-74
2023/08/03 03:44:28;;;;;;;10.35;3.00;;;;;;;-145.00;70.65;72426.75;5029645;28;20158;-74
2023/08/03 03:46:55;;;;;;;8.85;2.42;;;;;;;-145.00;70.32;72414.28;5030024;28;20049;-74
2023/08/03 03:49:21;;;;;;;8.10;2.17;;;;;;;-145.00;69.61;72430.94;5026221;28;20054;-75
2023/08/03 03:51:48;;;;;;;13.63;1.95;;;;;;;-145.00;69.38;72424.69;5010381;28;20045;-76
2023/08/03 03:54:14;;;;;;;8.93;2.03;;;;;;;-145.00;69.04;72426.75;5009970;28;20107;-76
2023/08/03 03:56:41;;;;;;;9.80;2.45;;;;;;;-145.00;67.81;72435.09;5010457;28;20058;-76
2023/08/03 03:59:09;;;;;;;7.00;2.17;;;;;;;-145.00;67.28;72433.00;5009828;28;20057;-74
2023/08/03 04:01:36;;;;;;;8.80;2.13;;;;;;;-145.00;67.75;72430.94;5010343;28;20053;-75
2023/08/03 04:04:02;;;;;;;8.80;2.13;;;;;;;-145.00;66.98;72437.19;5009754;28;20080;-73
2023/08/03 04:06:29;;;;;;;7.90;2.13;;;;;;;-145.00;67.55;72439.25;5010405;28;20052;-74
2023/08/03 04:08:55;;;;;;;9.55;2.20;;;;;;;-145.00;66.78;72453.81;5018811;28;20054;-74
2023/08/03 04:11:22;;;;;;;8.38;2.58;;;;;;;-145.00;67.21;72464.22;5048138;28;20056;-74
2023/08/03 04:13:49;;;;;;;11.18;2.33;;;;;;;-145.00;65.82;72472.56;5031323;28;20056;-74
2023/08/03 04:16:20;;;;;;;10.98;2.33;;;;;;;-145.00;65.63;72455.91;5031046;28;20041;-75
2023/08/03 04:18:47;;;;;;;7.72;1.75;;;;;;;-145.00;65.67;72449.66;5031671;28;20464;-74
2023/08/03 04:21:13;;;;;;;9.75;1.92;;;;;;;-145.00;64.09;72468.41;5033228;28;20056;-75
2023/08/03 04:23:40;;;;;;;10.90;1.98;;;;;;;-145.00;65.62;72487.13;5015147;28;20049;-75
2023/08/03 04:26:07;;;;;;;6.32;1.70;;;;;;;-145.00;64.66;72493.38;5014313;28;20053;-74
2023/08/03 04:28:34;;;;;;;13.50;1.90;;;;;;;-145.00;65.05;72493.38;5016296;28;20046;-75
2023/08/03 04:31:00;;;;;;;7.30;1.92;;;;;;;-145.00;65.76;72476.72;5024341;28;20401;-73
2023/08/03 04:33:28;;;;;;;5.63;2.00;;;;;;;-145.00;66.60;72451.75;5046054;28;20091;-74
2023/08/03 04:35:55;;;;;;;8.88;2.25;;;;;;;-145.00;66.63;72451.75;5049265;28;20049;-73
2023/08/03 04:38:21;;;;;;;9.50;2.42;;;;;;;-145.00;65.78;72439.25;5048181;28;20051;-73
2023/08/03 04:40:48;;;;;;;10.63;2.25;;;;;;;-145.00;66.41;72430.94;5054514;28;20060;-74
2023/08/03 04:43:15;;;;;;;9.68;2.53;;;;;;;-145.00;67.01;72430.94;5054259;28;20049;-74
2023/08/03 04:45:41;;;;;;;10.13;1.98;;;;;;;-145.00;66.34;72428.84;5054623;28;20056;-75
2023/08/03 04:48:08;;;;;;;10.50;2.05;;;;;;;-145.00;65.83;72420.53;5056843;28;20052;-75
2023/08/03 04:50:35;;;;;;;7.65;2.47;;;;;;;-145.00;65.61;72418.44;5057715;28;20055;-73
2023/08/03 04:53:02;;;;;;;4.95;1.80;;;;;;;-145.00;65.92;72418.44;5053294;28;20136;-72
2023/08/03 04:55:28;;;;;;;7.78;2.33;;;;;;;-145.00;66.83;72435.09;5053359;28;20075;-73
2023/08/03 04:57:55;;;;;;;10.70;3.20;;;;;;;-145.00;65.61;72447.59;5055155;28;20076;-73
2023/08/03 05:00:22;;;;;;;9.52;1.90;;;;;;;-145.00;65.77;72430.94;5049767;28;20060;-73
2023/08/03 05:02:48;;;;;;;7.72;1.77;;;;;;;-145.00;65.33;72422.59;5050261;28;20049;-73
2023/08/03 05:05:15;;;;;;;7.07;1.88;;;;;;;-145.00;66.38;72437.19;5048898;28;20051;-73
2023/08/03 05:07:43;;;;;;;7.60;1.90;;;;;;;-145.00;65.80;72414.28;5048722;28;20045;-73
2023/08/03 05:10:10;;;;;;;9.93;2.30;;;;;;;-145.00;64.97;72412.19;5047599;28;20049;-74
2023/08/03 05:12:38;;;;;;;10.23;1.92;;;;;;;-145.00;65.78;72426.75;5049793;28;20049;-74
2023/08/03 05:15:05;;;;;;;10.80;2.40;;;;;;;-145.00;64.59;72426.75;5049304;28;20076;-73
2023/08/03 05:17:32;;;;;;;8.75;2.08;;;;;;;-145.00;63.90;72426.75;5049510;28;20056;-73
2023/08/03 05:19:58;;;;;;;8.65;1.92;;;;;;;-145.00;64.28;72401.78;5049659;28;20059;-73
2023/08/03 05:22:25;;;;;;;7.68;1.45;;;;;;;-145.00;63.81;72405.94;5048501;28;20041;-73
2023/08/03 05:24:52;;;;;;;8.98;1.95;;;;;;;-145.00;62.38;72422.59;5031758;28;20060;-74
2023/08/03 05:27:19;;;;;;;9.20;2.13;;;;;;;-145.00;61.62;72408.03;5048745;28;20061;-73
2023/08/03 05:29:45;;;;;;;8.45;2.08;;;;;;;-145.00;61.34;72376.81;5049308;28;20055;-73
2023/08/03 05:32:12;;;;;;;9.88;2.50;;;;;;;-145.00;62.16;72410.13;5048681;28;20504;-74
2023/08/03 05:34:39;;;;;;;6.30;1.70;;;;;;;-145.00;61.53;72418.44;5049835;28;20063;-73
2023/08/03 05:37:07;;;;;;;8.23;2.40;;;;;;;-145.00;61.33;72435.09;5048730;28;20049;-72
2023/08/03 05:39:33;;;;;;;8.27;1.77;;;;;;;-145.00;60.15;72389.28;5045839;28;20500;-73
2023/08/03 05:42:01;;;;;;;13.30;2.35;;;;;;;-145.00;61.30;72418.44;5048956;28;20060;-73
2023/08/03 05:44:28;;;;;;;7.40;1.60;;;;;;;-145.00;59.78;72399.72;5048782;28;20051;-73
2023/08/03 05:46:55;;;;;;;5.22;1.77;;;;;;;-145.00;59.27;72378.88;5049181;28;20049;-73
2023/08/03 05:49:25;;;;;;;10.30;1.80;;;;;;;-145.00;58.93;72397.63;5048278;28;20551;-74
2023/08/03 05:51:51;;;;;;;7.82;2.30;;;;;;;-145.00;59.77;72414.28;5048947;28;20080;-74
2023/08/03 05:54:19;;;;;;;6.78;1.88;;;;;;;-145.00;58.03;72412.19;5048442;28;20045;-73
2023/08/03 05:56:46;;;;;;;12.07;1.83;;;;;;;-145.00;58.64;72422.59;5048692;28;20080;-73
2023/08/03 05:59:19;;;;;;;11.50;2.08;;;;;;;-145.00;56.78;72376.81;5047503;28;20059;-73
2023/08/03 06:01:47;;;;;;;8.70;1.90;;;;;;;-145.00;57.18;72397.63;5048726;28;20053;-74
2023/08/03 06:04:15;;;;;;;5.00;1.58;;;;;;;-145.00;55.77;72393.47;5048419;28;20045;-71
2023/08/03 06:06:42;;;;;;;7.15;1.67;;;;;;;-145.00;55.23;72403.88;5048897;28;20049;-73
2023/08/03 06:09:11;;;;;;;8.43;2.00;;;;;;;-145.00;55.20;72410.13;5037398;28;20059;-74
2023/08/03 06:11:38;;;;;;;6.90;1.30;;;;;;;-145.00;55.49;72383.06;5053183;28;20098;-73
2023/08/03 06:14:05;;;;;;;9.32;1.55;;;;;;;-145.00;55.61;72385.13;5055807;28;20048;-72
2023/08/03 06:16:33;;;;;;;6.30;1.52;;;;;;;-145.00;55.05;72383.06;5054988;28;20049;-74
2023/08/03 06:19:00;;;;;;;9.40;1.73;;;;;;;-145.00;54.06;72376.81;5052739;28;20075;-73
2023/08/03 06:21:28;;;;;;;8.98;1.40;;;;;;;-145.00;54.31;72397.63;5048959;28;20049;-73
2023/08/03 06:23:57;;;;;;;13.57;1.45;;;;;;;-145.00;53.27;72368.47;5049266;28;20059;-73
2023/08/03 06:26:25;;;;;;;9.45;1.45;;;;;;;-145.00;52.88;72370.56;5047862;28;20571;-72
2023/08/03 06:28:54;;;;;;;6.80;1.27;;;;;;;-145.00;52.79;72364.31;5048345;28;20067;-72
2023/08/03 06:31:24;;;;;;;4.70;1.33;;;;;;;-145.00;52.89;72339.34;5047850;28;20053;-72
2023/08/03 06:33:52;;;;;;;6.35;1.48;;;;;;;-145.00;52.54;72366.41;5048299;28;20057;-72
2023/08/03 06:36:20;;;;;;;5.00;1.50;;;;;;;-145.00;50.98;72347.66;5047598;28;20048;-72
2023/08/03 06:38:47;;;;;;;5.38;1.00;;;;;;;-145.00;49.94;72331.00;5044275;28;20420;-72
2023/08/03 06:41:14;;;;;;;2.50;0.95;;;;;;;-145.00;50.55;72341.41;5047159;28;20147;-72
2023/08/03 06:43:41;;;;;;;4.40;1.25;;;;;;;-145.00;49.82;72326.84;5048055;28;20060;-72
2023/08/03 06:46:08;;;;;;;4.03;0.95;;;;;;;-145.00;49.58;72320.59;5047746;28;20424;-73
2023/08/03 06:48:34;;;;;;;3.92;0.93;;;;;;;-145.00;49.03;72312.28;5048649;28;20049;-72
2023/08/03 06:51:03;;;;;;;6.22;0.90;;;;;;;-145.00;48.81;72297.72;5047809;28;20044;-73
2023/08/03 06:53:30;;;;;;;8.02;1.10;;;;;;;-145.00;48.54;72283.13;5047977;28;20053;-73
2023/08/03 06:55:57;;;;;;;6.80;1.25;;;;;;;-145.00;48.05;72293.53;5048606;28;20063;-73
2023/08/03 06:58:23;;;;;;;4.47;0.98;;;;;;;-145.00;49.09;72270.66;5047019;28;20044;-72
2023/08/03 07:00:50;;;;;;;5.13;0.85;;;;;;;-145.00;47.65;72285.22;5048056;28;20045;-72
2023/08/03 07:03:17;;;;;;;3.65;0.88;;;;;;;-145.00;47.60;72285.22;5047697;28;20059;-72
2023/08/03 07:05:44;;;;;;;3.05;1.00;;;;;;;-145.00;47.69;72289.38;5047830;28;20768;-73
2023/08/03 07:08:12;;;;;;;3.10;0.73;;;;;;;-145.00;46.53;72251.91;5035065;28;20054;-73
2023/08/03 07:10:39;;;;;;;2.55;0.73;;;;;;;-145.00;47.09;72274.81;5047348;28;20057;-72
2023/08/03 07:13:06;;;;;;;3.38;0.98;;;;;;;-145.00;46.86;72247.75;5047740;28;20071;-73
2023/08/03 07:15:34;;;;;;;4.40;0.90;;;;;;;-145.00;46.93;72226.94;5048283;28;20051;-74
2023/08/03 07:18:01;;;;;;;4.45;0.90;;;;;;;-145.00;45.54;72214.44;5048880;28;20049;-75
2023/08/03 07:20:28;;;;;;;6.65;0.80;;;;;;;-145.00;45.68;72222.78;5047521;28;20045;-73
2023/08/03 07:22:55;;;;;;;5.13;0.82;;;;;;;-145.00;45.68;72201.97;5047521;28;20055;-73
2023/08/03 07:25:23;;;;;;;7.78;1.52;;;;;;;-145.00;45.62;72195.72;5047057;28;20054;-73
2023/08/03 07:27:54;;;;;;;4.38;0.80;;;;;;;-145.00;45.28;72218.63;5047106;28;20048;-74
2023/08/03 07:30:21;;;;;;;4.78;1.10;;;;;;;-145.00;44.87;72235.25;5047448;28;20852;-72
2023/08/03 07:32:47;;;;;;;3.65;1.02;;;;;;;-145.00;45.15;72210.28;5047317;28;20583;-72
2023/08/03 07:35:14;;;;;;;3.88;1.05;;;;;;;-145.00;45.12;72197.81;5046993;28;20509;-73
2023/08/03 07:37:40;;;;;;;3.17;0.82;;;;;;;-145.00;43.75;72218.63;5047091;28;20063;-72
2023/08/03 07:40:09;;;;;;;3.70;0.95;;;;;;;-145.00;43.79;72193.63;5043783;28;20059;-73
2023/08/03 07:42:37;;;;;;;4.65;1.25;;;;;;;-145.00;44.71;72183.22;5047896;28;20091;-74
2023/08/03 07:45:04;;;;;;;7.07;0.90;;;;;;;-145.00;43.72;72164.50;5047600;28;20051;-72
2023/08/03 07:47:31;;;;;;;5.70;0.98;;;;;;;-145.00;43.71;72147.84;5047846;28;20479;-73
2023/08/03 07:49:57;;;;;;;4.95;0.80;;;;;;;-145.00;42.59;72147.84;5048294;28;20047;-72
2023/08/03 07:52:24;;;;;;;3.58;0.85;;;;;;;-145.00;42.71;72110.38;5047178;28;20136;-74
2023/08/03 07:54:54;;;;;;;8.88;1.10;;;;;;;-145.00;41.71;72064.59;5047883;28;20059;-73
2023/08/03 07:57:21;;;;;;;3.03;0.70;;;;;;;-145.00;40.76;72031.28;5047313;28;20059;-74
2023/08/03 07:59:52;;;;;;;3.72;0.93;;;;;;;-145.00;40.33;72052.09;5047445;28;20696;-72
2023/08/03 08:02:19;;;;;;;3.05;1.05;;;;;;;-145.00;41.03;72050.03;5047124;28;20789;-73
2023/08/03 08:04:49;;;;;;;7.78;0.68;;;;;;;-145.00;42.56;72081.25;5047567;28;20519;-74
2023/08/03 08:07:16;;;;;;;5.00;1.00;;;;;;;-145.00;41.67;72058.34;5047435;28;20488;-73
2023/08/03 08:09:43;;;;;;;3.55;0.80;;;;;;;-145.00;40.98;71977.19;5042805;28;20049;-72
2023/08/03 08:12:09;;;;;;;2.90;0.70;;;;;;;-145.00;40.90;72031.28;5037765;28;20060;-73
2023/08/03 08:14:36;;;;;;;7.05;1.00;;;;;;;-145.00;43.74;72035.44;5046767;28;20519;-74
2023/08/03 08:17:04;;;;;;;3.97;1.08;;;;;;;-145.00;40.78;71985.50;5046078;28;20048;-75
2023/08/03 08:19:31;;;;;;;3.70;0.98;;;;;;;-145.00;40.42;71923.06;5046716;28;20056;-73
2023/08/03 08:21:59;;;;;;;3.53;0.73;;;;;;;-145.00;40.44;71887.69;5047926;28;20071;-73
2023/08/03 08:24:25;;;;;;;2.30;0.70;;;;;;;-145.00;38.85;71848.13;5050473;28;20056;-73
2023/08/03 08:26:52;;;;;;;4.93;1.00;;;;;;;-145.00;39.20;71893.91;5050608;28;20075;-72
2023/08/03 08:29:18;;;;;;;3.55;0.82;;;;;;;-145.00;39.05;71898.09;5040011;28;20057;-74
2023/08/03 08:31:45;;;;;;;4.38;1.00;;;;;;;-145.00;41.96;71900.16;5050025;28;20424;-73
2023/08/03 08:34:13;;;;;;;4.72;0.82;;;;;;;-145.00;40.23;71810.66;5050110;28;20049;-73
2023/08/03 08:36:39;;;;;;;4.38;0.90;;;;;;;-145.00;39.43;71827.31;5050547;28;20057;-73
2023/08/03 08:39:06;;;;;;;3.38;0.90;;;;;;;-145.00;38.74;71873.09;5044378;28;20053;-73
2023/08/03 08:41:32;;;;;;;4.28;0.98;;;;;;;-145.00;40.10;71856.47;5050204;28;20053;-74
2023/08/03 08:43:59;;;;;;;4.82;1.10;;;;;;;-145.00;38.52;71806.50;5050458;28;20049;-75
2023/08/03 08:46:25;;;;;;;4.38;0.80;;;;;;;-145.00;38.42;71827.31;5050003;28;20045;-74
2023/08/03 08:48:51;;;;;;;4.43;1.00;;;;;;;-145.00;37.64;71794.03;5049451;28;20417;-73
2023/08/03 08:51:21;;;;;;;4.05;0.70;;;;;;;-145.00;38.73;71789.88;5049450;28;20049;-73
2023/08/03 08:53:47;;;;;;;4.35;0.82;;;;;;;-145.00;39.08;71839.81;5050209;28;20064;-73
2023/08/03 08:56:14;;;;;;;9.23;0.95;;;;;;;-145.00;38.56;71848.13;5049871;28;20049;-74
2023/08/03 08:58:40;;;;;;;6.72;1.02;;;;;;;-145.00;39.45;71852.28;5050858;28;20048;-73
2023/08/03 09:01:07;;;;;;;6.00;1.10;;;;;;;-145.00;38.68;71877.28;5049739;28;20045;-72
2023/08/03 09:03:46;;;;;;;5.85;0.90;;;;;;;-145.00;38.09;71873.09;5050093;28;20052;-72
2023/08/03 09:06:13;;;;;;;3.60;1.10;;;;;;;-145.00;39.29;71881.44;5049515;28;20053;-72
2023/08/03 09:08:50;;;;;;;2.97;0.82;;;;;;;-145.00;38.88;71893.91;5043706;28;20096;-75
2023/08/03 09:11:17;;;;;;;4.15;0.90;;;;;;;-145.00;38.28;71848.13;5048932;28;20041;-73
2023/08/03 09:13:48;;;;;;;3.67;0.80;;;;;;;-145.00;38.77;71923.06;5050604;28;20057;-73
2023/08/03 09:16:23;;;;;;;4.07;0.90;;;;;;;-145.00;39.28;71906.41;5049850;28;20049;-73
2023/08/03 09:18:50;;;;;;;4.75;1.00;;;;;;;-145.00;38.37;71860.63;5050533;28;20059;-73
2023/08/03 09:21:19;;;;;;;3.38;0.70;;;;;;;-145.00;38.37;71831.47;5049461;28;20052;-73
2023/08/03 09:23:45;;;;;;;7.55;0.95;;;;;;;-145.00;37.57;71846.06;5050077;28;20059;-73
2023/08/03 09:26:14;;;;;;;4.18;0.85;;;;;;;-145.00;38.58;71864.78;5049459;28;20049;-72
2023/08/03 09:28:42;;;;;;;5.68;0.88;;;;;;;-145.00;38.61;71816.91;5049573;28;20051;-72
2023/08/03 09:31:09;;;;;;;3.28;0.90;;;;;;;-145.00;37.48;71821.06;5048797;28;20049;-72
2023/08/03 09:33:37;;;;;;;3.80;0.90;;;;;;;-145.00;39.08;71846.06;5047928;28;20056;-73
2023/08/03 09:36:05;;;;;;;5.85;0.90;;;;;;;-145.00;37.67;71848.13;5048659;28;20059;-72
2023/08/03 09:38:32;;;;;;;5.50;0.90;;;;;;;-145.00;38.42;71819.00;5043089;28;20068;-71
2023/08/03 09:40:59;;;;;;;2.78;0.77;;;;;;;-145.00;37.04;71827.31;5048878;28;20053;-72
2023/08/03 09:43:28;;;;;;;3.20;1.05;;;;;;;-145.00;37.72;71806.50;5048512;28;20492;-73
2023/08/03 09:45:58;;;;;;;8.73;1.25;;;;;;;-145.00;38.49;71781.53;5049063;28;20049;-74
2023/08/03 09:48:26;;;;;;;4.47;0.90;;;;;;;-145.00;36.73;71702.44;5049162;28;20132;-74
2023/08/03 09:50:55;;;;;;;3.05;0.80;;;;;;;-145.00;36.12;71698.28;5049361;28;20048;-73
2023/08/03 09:53:25;;;;;;;2.97;0.80;;;;;;;-145.00;36.86;71748.22;5048529;28;20049;-73
2023/08/03 09:56:00;;;;;;;3.00;1.02;;;;;;;-145.00;36.68;71685.81;5048798;28;20048;-75
2023/08/03 09:58:36;;;;;;;4.85;0.90;;;;;;;-145.00;36.13;71673.31;5048626;28;20443;-72
2023/08/03 10:01:05;;;;;;;2.80;0.80;;;;;;;-145.00;35.85;71623.38;5048078;28;20049;-73
2023/08/03 10:03:33;;;;;;;4.65;1.02;;;;;;;-145.00;35.46;71640.00;5048721;28;20052;-73
2023/08/03 10:06:08;;;;;;;4.50;1.00;;;;;;;-145.00;34.85;71615.03;5048906;28;20139;-73
2023/08/03 10:08:41;;;;;;;3.42;0.82;;;;;;;-145.00;35.77;71644.19;5041720;28;20128;-74
2023/08/03 10:11:12;;;;;;;3.42;0.80;;;;;;;-145.00;36.16;71652.50;5047474;28;20536;-73
2023/08/03 10:13:46;;;;;;;3.45;0.80;;;;;;;-145.00;35.35;71656.66;5048556;28;20075;-74
2023/08/03 10:16:13;;;;;;;6.13;1.00;;;;;;;-145.00;34.98;71646.25;5048224;28;20048;-72
2023/08/03 10:18:40;;;;;;;4.68;1.05;;;;;;;-145.00;34.63;71689.97;5048588;28;20060;-73
2023/08/03 10:21:07;;;;;;;2.75;0.90;;;;;;;-145.00;34.38;71635.84;5047865;28;20055;-72
2023/08/03 10:23:35;;;;;;;4.53;1.10;;;;;;;-145.00;34.79;71623.38;5048303;28;20048;-72
2023/08/03 10:26:06;;;;;;;6.95;1.00;;;;;;;-145.00;34.16;71581.75;5048274;28;20049;-74
2023/08/03 10:28:47;;;;;;;4.47;0.90;;;;;;;-145.00;34.82;71604.63;5049726;28;20131;-74
2023/08/03 10:31:15;;;;;;;4.78;0.85;;;;;;;-145.00;33.73;71646.25;5047893;28;20057;-71
2023/08/03 10:34:26;;;;;;;3.17;0.80;;;;;;;-145.00;34.35;71692.03;5048444;28;20052;-72
2023/08/03 10:36:55;;;;;;;2.85;0.60;;;;;;;-145.00;35.03;71660.81;5048027;28;20748;-73
2023/08/03 10:39:46;;;;;;;2.47;0.80;;;;;;;-145.00;34.77;71640.00;5040347;28;20049;-73
2023/08/03 10:42:28;;;;;;;3.35;0.90;;;;;;;-145.00;34.40;71689.97;5047075;28;20057;-73
2023/08/03 10:45:27;;;;;;;2.53;0.63;;;;;;;-145.00;35.28;71623.38;5047917;28;20165;-74
2023/08/03 10:47:54;;;;;;;2.05;0.68;;;;;;;-145.00;34.52;71627.53;5048113;28;20052;-73
2023/08/03 10:50:20;;;;;;;2.35;0.70;;;;;;;-145.00;34.49;71581.75;5047355;28;20790;-73
2023/08/03 10:52:47;;;;;;;2.67;0.70;;;;;;;-145.00;34.64;71594.22;5048238;28;20073;-73
2023/08/03 10:55:21;;;;;;;3.97;0.60;;;;;;;-145.00;34.23;71619.19;5047686;28;20052;-73
2023/08/03 10:57:48;;;;;;;2.28;0.73;;;;;;;-145.00;34.90;71698.28;5047883;28;20083;-71
2023/08/03 11:00:17;;;;;;;1.90;0.68;;;;;;;-145.00;36.43;71769.03;5046961;28;20135;-73
2023/08/03 11:02:44;;;;;;;5.03;0.77;;;;;;;-145.00;35.61;71760.72;5047323;28;20049;-73
2023/08/03 11:05:11;;;;;;;1.48;0.50;;;;;;;-145.00;34.31;71752.41;5047082;28;20049;-73
2023/08/03 11:07:41;;;;;;;2.20;0.70;;;;;;;-145.00;34.74;71727.41;5047596;28;20065;-73
2023/08/03 11:10:10;;;;;;;2.40;0.88;;;;;;;-145.00;36.83;71823.16;5040971;28;20060;-72
2023/08/03 11:12:37;;;;;;;2.30;0.60;;;;;;;-145.00;36.21;71819.00;5030742;28;20076;-73
2023/08/03 11:15:05;;;;;;;2.83;0.90;;;;;;;-145.00;36.81;71754.47;5027435;28;20508;-73
2023/08/03 11:17:35;;;;;;;3.67;0.60;;;;;;;-145.00;36.13;71760.72;5027621;28;20508;-72
2023/08/03 11:20:03;;;;;;;3.00;0.60;;;;;;;-145.00;35.83;71814.84;5026840;28;20045;-73